Time;durP1;ratioP1;P1;durP2;ratioP2;P2;SDS_P1;SDS_P2;PMS_P1;PMS_P2;Temp;Humidity;BMP_temperature;BMP_pressure;BME280_temperature;BME280_humidity;BME280_pressure;Samples;Min_cycle;Max_cycle;Signal;HPM_P1;HPM_P2
2022/01/22 00:00:42;;;;;;;6.88;3.53;;;7.70;65.40;;;;;;4996257;28;20046;-73
2022/01/22 00:03:08;;;;;;;6.22;3.40;;;7.80;65.40;;;;;;4996317;28;20034;-72
2022/01/22 00:05:34;;;;;;;8.55;3.85;;;7.80;65.40;;;;;;4996314;28;20022;-73
2022/01/22 00:07:59;;;;;;;6.07;2.92;;;7.90;65.30;;;;;;4995926;28;20160;-73
2022/01/22 00:10:25;;;;;;;6.35;3.30;;;7.80;65.00;;;;;;4996142;28;20439;-72
2022/01/22 00:15:26;;;;;;;8.65;3.60;;;7.80;65.10;;;;;;4996092;28;20106;-72
2022/01/22 00:17:52;;;;;;;5.35;2.92;;;7.80;65.20;;;;;;4995855;28;20088;-70
2022/01/22 00:20:21;;;;;;;6.65;3.33;;;7.80;65.40;;;;;;4995823;28;20033;-71
2022/01/22 00:22:46;;;;;;;6.60;3.47;;;7.80;65.90;;;;;;4996001;28;20024;-71
2022/01/22 00:25:14;;;;;;;7.75;3.70;;;7.80;64.90;;;;;;4995929;28;20102;-73
2022/01/22 00:27:42;;;;;;;6.30;3.30;;;7.80;65.00;;;;;;4995812;28;20023;-71
2022/01/22 00:30:11;;;;;;;9.55;3.42;;;7.80;65.10;;;;;;4995876;28;20038;-72
2022/01/22 00:32:37;;;;;;;7.03;2.92;;;7.80;65.60;;;;;;4995568;28;20102;-72
2022/01/22 00:35:04;;;;;;;4.82;2.78;;;7.70;64.80;;;;;;4995680;28;20488;-72
2022/01/22 00:37:30;;;;;;;6.28;3.40;;;7.70;64.90;;;;;;4995509;28;20034;-72
2022/01/22 00:39:56;;;;;;;6.18;3.17;;;7.70;64.80;;;;;;4995792;28;20104;-72
2022/01/22 00:42:23;;;;;;;7.82;3.25;;;7.70;65.00;;;;;;4996220;28;20029;-72
2022/01/22 00:44:51;;;;;;;6.05;3.45;;;7.70;65.00;;;;;;4995861;28;20061;-71
2022/01/22 00:47:18;;;;;;;9.80;3.38;;;7.70;64.90;;;;;;4995447;28;20026;-73
2022/01/22 00:49:44;;;;;;;9.48;3.28;;;7.70;65.00;;;;;;4995210;28;20047;-71
2022/01/22 00:52:10;;;;;;;7.38;3.53;;;7.70;65.20;;;;;;4995355;28;20034;-72
2022/01/22 00:54:36;;;;;;;6.50;3.30;;;7.70;64.50;;;;;;4995013;28;20097;-72
2022/01/22 00:57:02;;;;;;;5.60;2.83;;;7.60;64.80;;;;;;4995134;28;20054;-70
2022/01/22 00:59:28;;;;;;;6.63;3.20;;;7.60;64.80;;;;;;4995025;28;20084;-70
2022/01/22 01:01:54;;;;;;;6.07;2.88;;;7.60;64.50;;;;;;4995142;28;20022;-71
2022/01/22 01:04:19;;;;;;;5.50;2.78;;;7.50;64.40;;;;;;4994854;28;20110;-72
2022/01/22 01:06:45;;;;;;;5.60;3.10;;;7.50;64.40;;;;;;4994906;28;20077;-72
2022/01/22 01:09:11;;;;;;;5.90;2.97;;;7.40;64.30;;;;;;4994477;28;20033;-71
2022/01/22 01:11:46;;;;;;;6.68;2.97;;;7.40;64.50;;;;;;4994879;28;20028;-71
2022/01/22 01:14:18;;;;;;;6.45;3.15;;;7.40;64.50;;;;;;4994842;28;20026;-72
2022/01/22 01:16:57;;;;;;;9.02;3.63;;;7.40;64.40;;;;;;4994834;28;20105;-71
2022/01/22 01:33:11;;;;;;;;;;;7.30;63.70;;;;;;4994983;28;20084;-70
2022/01/22 01:35:39;;;;;;;6.38;3.15;;;7.40;63.50;;;;;;4994512;28;19959;-70
2022/01/22 01:38:06;;;;;;;7.05;3.20;;;7.40;64.20;;;;;;4994331;28;20042;-71
2022/01/22 01:40:34;;;;;;;6.70;2.95;;;7.40;64.30;;;;;;4994411;28;20023;-70
2022/01/22 01:45:27;;;;;;;5.88;2.95;;;7.40;64.20;;;;;;4994348;28;20177;-71
2022/01/22 01:47:55;;;;;;;6.03;2.95;;;7.40;64.10;;;;;;4994282;28;20038;-70
2022/01/22 01:50:21;;;;;;;7.53;3.30;;;7.40;63.90;;;;;;4993988;28;20064;-72
2022/01/22 01:52:52;;;;;;;5.32;2.78;;;7.40;63.80;;;;;;4994179;28;20536;-72
2022/01/22 01:55:22;;;;;;;5.63;3.05;;;7.40;63.60;;;;;;5009430;28;20081;-70
2022/01/22 01:57:48;;;;;;;7.97;2.97;;;7.40;63.70;;;;;;4993776;28;20058;-71
2022/01/22 02:00:23;;;;;;;3.95;2.30;;;7.40;63.20;;;;;;4994264;28;20061;-71
2022/01/22 02:02:50;;;;;;;5.63;2.53;;;7.30;62.70;;;;;;4994000;28;20510;-71
2022/01/22 02:05:20;;;;;;;3.80;2.00;;;7.40;62.90;;;;;;4994114;28;20105;-70
2022/01/22 02:07:45;;;;;;;4.50;2.15;;;7.40;62.40;;;;;;5024458;28;20033;-72
2022/01/22 02:10:17;;;;;;;4.78;2.45;;;7.40;61.90;;;;;;4993979;28;20023;-72
2022/01/22 02:26:02;;;;;;;6.15;2.55;;;7.40;61.10;;;;;;4993526;28;19974;-71
2022/01/22 02:28:28;;;;;;;5.30;2.83;;;7.30;61.50;;;;;;4993385;28;20098;-71
2022/01/22 02:31:02;;;;;;;8.25;2.58;;;7.30;61.80;;;;;;4993514;28;20027;-70
2022/01/22 02:33:45;;;;;;;6.18;2.80;;;7.20;61.60;;;;;;4993536;28;20116;-71
2022/01/22 02:41:48;;;;;;;5.85;2.42;;;7.10;62.20;;;;;;5013383;28;20038;-70
2022/01/22 02:44:25;;;;;;;5.03;2.70;;;7.10;61.90;;;;;;4993254;28;20495;-71
2022/01/22 02:46:51;;;;;;;5.25;2.35;;;7.10;62.30;;;;;;4993518;28;20438;-71
2022/01/22 02:49:17;;;;;;;7.35;2.65;;;7.10;62.30;;;;;;4993135;28;20141;-71
2022/01/22 02:51:43;;;;;;;4.45;2.22;;;7.00;62.20;;;;;;4993588;28;20049;-70
2022/01/22 02:54:09;;;;;;;4.88;2.38;;;7.10;62.10;;;;;;4993020;28;20448;-71
2022/01/22 02:56:34;;;;;;;5.55;2.30;;;7.10;61.80;;;;;;4993050;28;20100;-72
2022/01/22 02:59:02;;;;;;;5.60;2.08;;;7.10;61.80;;;;;;4993086;28;20046;-70
2022/01/22 03:01:28;;;;;;;6.75;2.80;;;7.10;61.70;;;;;;4993143;28;20029;-71
2022/01/22 03:03:53;;;;;;;3.78;2.03;;;7.10;61.80;;;;;;4992930;28;20066;-73
2022/01/22 03:06:19;;;;;;;4.50;2.35;;;7.00;61.40;;;;;;4993036;28;20054;-71
2022/01/22 03:08:47;;;;;;;4.82;2.35;;;7.00;61.30;;;;;;4992925;28;20030;-71
2022/01/22 03:11:23;;;;;;;5.72;2.28;;;7.00;61.30;;;;;;4993048;28;20081;-71
2022/01/22 03:14:28;;;;;;;6.70;2.47;;;6.90;60.90;;;;;;5024478;28;20030;-71
2022/01/22 03:19:18;;;;;;;4.20;1.98;;;6.90;60.40;;;;;;4992755;28;20041;-70
2022/01/22 03:21:59;;;;;;;5.88;3.15;;;6.90;60.50;;;;;;4992857;28;20027;-70
2022/01/22 03:27:25;;;;;;;;;;;6.80;59.60;;;;;;4993240;28;20045;-70
2022/01/22 03:29:51;;;;;;;4.22;1.77;;;6.80;59.00;;;;;;4992699;28;19973;-71
2022/01/22 03:32:18;;;;;;;3.80;1.63;;;6.80;59.90;;;;;;4993518;28;20400;-71
2022/01/22 03:35:34;;;;;;;3.05;1.50;;;6.80;59.50;;;;;;4996798;28;20391;-71
2022/01/22 03:37:33;;;;;;;3.85;1.67;;;6.80;60.00;;;;;;5001192;28;20047;-71
2022/01/22 03:39:59;;;;;;;4.30;1.60;;;6.70;59.80;;;;;;4996638;28;20073;-70
2022/01/22 03:42:25;;;;;;;3.13;1.45;;;6.70;59.10;;;;;;4996667;28;20512;-71
2022/01/22 03:44:51;;;;;;;3.80;1.70;;;6.70;60.00;;;;;;4996784;28;20022;-71
2022/01/22 03:47:17;;;;;;;5.70;2.38;;;6.70;60.40;;;;;;4996859;28;20488;-71
2022/01/22 03:49:42;;;;;;;3.22;1.70;;;6.70;59.90;;;;;;4996181;28;20038;-72
2022/01/22 03:52:09;;;;;;;4.32;2.00;;;6.70;59.50;;;;;;4996656;28;20049;-70
2022/01/22 03:54:35;;;;;;;3.63;1.80;;;6.70;60.10;;;;;;4996426;28;20073;-72
2022/01/22 03:57:01;;;;;;;5.85;1.70;;;6.70;60.00;;;;;;4996219;28;20026;-70
2022/01/22 03:59:30;;;;;;;4.93;1.70;;;6.70;59.40;;;;;;4996454;28;20031;-70
2022/01/22 04:02:18;;;;;;;4.53;1.75;;;6.60;59.60;;;;;;4996591;28;20038;-71
2022/01/22 04:04:49;;;;;;;2.80;1.42;;;6.70;60.00;;;;;;4996920;28;20060;-70
2022/01/22 04:09:45;;;;;;;4.10;1.60;;;6.60;60.00;;;;;;4997419;28;20391;-72
2022/01/22 04:12:19;;;;;;;3.78;1.70;;;6.60;59.90;;;;;;4997697;28;20525;-70
2022/01/22 04:14:51;;;;;;;2.92;1.60;;;6.60;59.30;;;;;;4995940;28;20037;-70
2022/01/22 04:25:19;;;;;;;;;;;6.50;59.50;;;;;;4996469;28;20077;-70
2022/01/22 04:27:45;;;;;;;3.50;1.67;;;6.40;58.10;;;;;;4995695;28;20009;-71
2022/01/22 04:30:11;;;;;;;3.58;1.40;;;6.40;59.00;;;;;;4995690;28;20105;-71
2022/01/22 04:32:36;;;;;;;2.92;1.55;;;6.40;59.40;;;;;;4994331;28;20022;-71
2022/01/22 04:35:02;;;;;;;4.60;1.67;;;6.40;58.60;;;;;;4995847;28;20081;-71
2022/01/22 04:37:28;;;;;;;4.10;1.58;;;6.40;59.00;;;;;;4995380;28;20027;-70
2022/01/22 04:39:54;;;;;;;3.30;1.40;;;6.40;58.60;;;;;;4995309;28;20395;-71
2022/01/22 04:42:21;;;;;;;3.38;1.35;;;6.40;58.40;;;;;;4995423;28;20097;-72
2022/01/22 04:54:58;;;;;;;6.28;1.80;;;6.30;58.30;;;;;;4995438;28;20388;-71
2022/01/22 04:55:30;;;;;;;3.97;1.40;;;6.20;58.30;;;;;;4994918;28;20034;-70
2022/01/22 04:57:56;;;;;;;3.15;1.60;;;6.20;58.40;;;;;;4995038;28;20034;-71
2022/01/22 05:00:22;;;;;;;5.65;1.50;;;6.20;58.60;;;;;;4995337;28;20018;-71
2022/01/22 05:02:48;;;;;;;3.55;1.40;;;6.20;58.50;;;;;;4995597;28;20113;-71
2022/01/22 05:05:13;;;;;;;4.05;1.45;;;6.20;58.30;;;;;;4995341;28;20050;-70
2022/01/22 05:07:39;;;;;;;5.65;1.50;;;6.20;57.80;;;;;;4994991;28;20034;-71
2022/01/22 05:10:06;;;;;;;2.80;1.27;;;6.20;59.10;;;;;;4994751;28;20407;-71
2022/01/22 05:12:32;;;;;;;3.05;1.27;;;6.20;57.60;;;;;;4995018;28;20050;-70
2022/01/22 05:14:58;;;;;;;4.28;1.60;;;6.30;58.20;;;;;;4994786;28;20058;-70
2022/01/22 05:17:23;;;;;;;6.53;1.33;;;6.20;56.90;;;;;;4994826;28;20038;-71
2022/01/22 05:20:04;;;;;;;3.85;1.20;;;6.10;57.00;;;;;;4994538;28;20056;-71
2022/01/22 05:25:08;;;;;;;3.53;1.30;;;6.10;57.40;;;;;;4994863;28;20030;-72
2022/01/22 05:38:03;;;;;;;;;;;6.00;57.20;;;;;;4994794;28;20049;-71
2022/01/22 05:40:29;;;;;;;3.30;1.45;;;6.00;55.50;;;;;;4994378;28;19906;-70
2022/01/22 05:42:56;;;;;;;6.15;2.65;;;6.00;56.40;;;;;;4994150;28;20018;-71
2022/01/22 05:45:21;;;;;;;4.30;1.40;;;6.00;56.70;;;;;;4994199;28;20019;-71
2022/01/22 05:47:47;;;;;;;3.28;1.40;;;5.90;56.50;;;;;;4994107;28;20035;-71
2022/01/22 05:50:26;;;;;;;4.53;1.52;;;5.90;56.50;;;;;;4994143;28;20052;-70
2022/01/22 05:52:57;;;;;;;2.75;1.38;;;5.90;56.60;;;;;;4994154;28;20026;-71
2022/01/22 06:00:33;;;;;;;3.70;1.40;;;5.90;56.70;;;;;;4994221;28;20097;-72
2022/01/22 06:02:59;;;;;;;2.83;1.42;;;5.90;56.50;;;;;;4993663;28;20037;-70
2022/01/22 06:05:25;;;;;;;3.60;1.50;;;5.80;55.80;;;;;;4993970;28;20109;-71
2022/01/22 06:07:50;;;;;;;2.75;1.50;;;5.80;56.10;;;;;;4993651;28;20437;-70
2022/01/22 06:10:18;;;;;;;5.35;1.83;;;5.80;56.30;;;;;;4993746;28;20081;-71
2022/01/22 06:15:17;;;;;;;4.53;1.50;;;5.70;55.90;;;;;;4993748;28;20046;-71
2022/01/22 06:17:43;;;;;;;4.28;1.60;;;5.70;55.80;;;;;;4993472;28;20602;-70
2022/01/22 06:20:12;;;;;;;3.28;1.60;;;5.60;55.50;;;;;;4993553;28;20444;-70
2022/01/22 06:22:39;;;;;;;5.22;1.67;;;5.60;55.90;;;;;;4993289;28;20108;-70
2022/01/22 06:25:06;;;;;;;5.47;1.60;;;5.60;55.60;;;;;;4993362;28;20133;-71
2022/01/22 06:27:32;;;;;;;5.03;1.73;;;5.60;56.00;;;;;;4993251;28;20034;-70
2022/01/22 06:29:58;;;;;;;6.50;1.55;;;5.60;55.90;;;;;;4992964;28;20420;-70
2022/01/22 06:32:23;;;;;;;3.95;1.50;;;5.60;55.70;;;;;;4993127;28;20033;-70
2022/01/22 06:34:49;;;;;;;4.65;1.73;;;5.50;55.70;;;;;;4993095;28;20065;-70
2022/01/22 06:37:15;;;;;;;4.40;1.55;;;5.50;56.20;;;;;;4993162;28;20092;-71
2022/01/22 06:41:44;;;;;;;4.43;1.50;;;5.50;55.90;;;;;;4992920;28;20034;-71
2022/01/22 06:42:26;;;;;;;4.70;1.55;;;5.50;55.40;;;;;;4992652;28;20081;-71
2022/01/22 06:44:52;;;;;;;3.47;1.65;;;5.50;55.80;;;;;;4992827;28;20080;-70
2022/01/22 06:47:18;;;;;;;3.65;1.42;;;5.60;55.90;;;;;;4992938;28;20026;-71
2022/01/22 06:49:44;;;;;;;2.90;1.45;;;5.60;55.70;;;;;;4992740;28;20566;-71
2022/01/22 06:52:09;;;;;;;6.35;1.70;;;5.60;56.10;;;;;;4992893;28;20254;-71
2022/01/22 06:54:35;;;;;;;4.30;1.52;;;5.60;55.80;;;;;;4992855;28;20490;-72
2022/01/22 06:57:01;;;;;;;3.90;1.40;;;5.60;55.30;;;;;;4992599;28;20034;-70
2022/01/22 06:59:26;;;;;;;5.13;1.45;;;5.60;55.40;;;;;;4992827;28;20079;-71
2022/01/22 07:01:54;;;;;;;5.13;1.73;;;5.60;55.20;;;;;;4992873;28;20031;-71
2022/01/22 07:04:21;;;;;;;4.45;1.73;;;5.70;55.30;;;;;;5024438;28;20114;-72
2022/01/22 07:06:47;;;;;;;7.07;2.83;;;5.70;54.90;;;;;;4992428;28;20029;-72
2022/01/22 07:09:12;;;;;;;8.13;2.22;;;5.70;54.80;;;;;;4992690;28;20031;-71
2022/01/22 07:11:38;;;;;;;5.40;1.85;;;5.90;55.00;;;;;;4992622;28;20022;-71
2022/01/22 07:14:04;;;;;;;4.97;1.90;;;6.00;54.80;;;;;;4992855;28;20484;-72
2022/01/22 07:16:30;;;;;;;5.90;2.38;;;6.00;54.60;;;;;;4991126;28;20018;-71
2022/01/22 07:19:00;;;;;;;4.60;2.05;;;6.10;54.20;;;;;;4992522;28;20030;-72
2022/01/22 07:21:28;;;;;;;4.90;1.67;;;6.20;53.70;;;;;;5024234;28;20049;-71
2022/01/22 07:24:22;;;;;;;4.20;1.63;;;6.20;54.10;;;;;;4992565;28;20089;-72
2022/01/22 07:26:40;;;;;;;4.35;1.52;;;6.30;54.40;;;;;;4992620;28;20504;-71
2022/01/22 07:29:05;;;;;;;4.35;1.77;;;6.30;54.30;;;;;;4992580;28;20061;-72
2022/01/22 07:31:31;;;;;;;6.28;2.00;;;6.50;55.00;;;;;;4992716;28;20100;-71
2022/01/22 07:33:57;;;;;;;6.05;2.22;;;6.60;54.40;;;;;;4992883;28;20033;-72
2022/01/22 07:36:23;;;;;;;6.78;2.15;;;6.80;54.60;;;;;;4993644;28;20076;-72
2022/01/22 07:38:49;;;;;;;6.47;1.95;;;6.90;53.80;;;;;;4994026;28;20452;-72
2022/01/22 07:41:16;;;;;;;3.72;1.98;;;6.90;53.40;;;;;;4993334;28;20030;-71
2022/01/22 07:43:42;;;;;;;5.13;2.10;;;6.90;53.80;;;;;;4992396;28;20026;-71
2022/01/22 07:46:09;;;;;;;5.82;2.42;;;7.00;53.80;;;;;;4992471;28;20038;-71
2022/01/22 07:48:35;;;;;;;7.40;3.63;;;7.10;53.20;;;;;;4992782;28;20448;-71
2022/01/22 07:51:01;;;;;;;6.97;2.42;;;7.20;53.70;;;;;;4992646;28;20025;-71
2022/01/22 07:53:26;;;;;;;5.32;2.28;;;7.20;53.20;;;;;;4992309;28;20383;-71
2022/01/22 07:55:52;;;;;;;6.50;2.10;;;7.30;53.00;;;;;;4992318;28;20084;-71
2022/01/22 07:58:18;;;;;;;6.68;2.53;;;7.30;52.60;;;;;;4992317;28;20107;-71
2022/01/22 08:00:44;;;;;;;5.57;2.30;;;7.20;52.00;;;;;;4992206;28;20442;-72
2022/01/22 08:03:09;;;;;;;6.65;2.97;;;7.10;52.20;;;;;;4992079;28;20162;-70
2022/01/22 08:05:36;;;;;;;4.72;2.40;;;7.10;52.10;;;;;;4992094;28;20084;-70
2022/01/22 08:08:03;;;;;;;8.40;2.63;;;7.00;52.50;;;;;;4991915;28;20019;-70
2022/01/22 08:10:29;;;;;;;6.10;2.38;;;7.00;52.60;;;;;;4992288;28;20424;-69
2022/01/22 08:12:55;;;;;;;6.85;2.50;;;6.90;52.50;;;;;;4992167;28;20452;-71
2022/01/22 08:15:21;;;;;;;5.45;2.08;;;6.90;52.20;;;;;;4992194;28;20033;-69
2022/01/22 08:17:48;;;;;;;10.02;2.40;;;6.90;52.20;;;;;;4991885;28;20098;-70
2022/01/22 08:20:16;;;;;;;5.63;2.20;;;6.80;51.80;;;;;;4994138;28;20109;-71
2022/01/22 08:22:43;;;;;;;5.47;2.15;;;6.80;51.80;;;;;;4995804;28;20489;-73
2022/01/22 08:25:10;;;;;;;5.55;2.45;;;6.80;51.70;;;;;;4995723;28;20030;-75
2022/01/22 08:30:22;;;;;;;7.18;2.22;;;6.80;51.00;;;;;;5014203;28;20042;-71
2022/01/22 08:36:05;;;;;;;7.45;2.55;;;6.90;51.80;;;;;;4996313;28;20081;-70
2022/01/22 08:38:26;;;;;;;4.47;1.80;;;6.90;51.20;;;;;;5003655;28;20495;-70
2022/01/22 08:40:52;;;;;;;5.28;2.05;;;7.00;50.90;;;;;;4995877;28;20022;-70
2022/01/22 08:43:18;;;;;;;6.68;1.92;;;7.10;52.00;;;;;;5000055;28;20403;-72
2022/01/22 08:45:45;;;;;;;9.02;2.30;;;7.20;50.50;;;;;;5012131;28;20109;-70
2022/01/22 08:48:11;;;;;;;9.40;2.80;;;7.20;51.00;;;;;;5015202;28;20044;-72
2022/01/22 08:50:36;;;;;;;5.45;2.60;;;7.30;51.40;;;;;;5015240;28;20458;-74
2022/01/22 08:53:03;;;;;;;4.95;1.92;;;7.40;50.90;;;;;;5014105;28;20030;-73
2022/01/22 08:55:29;;;;;;;9.07;2.33;;;7.40;50.10;;;;;;5015100;28;20040;-72
2022/01/22 08:57:55;;;;;;;4.68;1.90;;;7.50;50.20;;;;;;5014724;28;20037;-69
2022/01/22 09:00:22;;;;;;;4.63;1.85;;;7.50;50.20;;;;;;5015134;28;20486;-72
2022/01/22 09:02:49;;;;;;;10.20;4.15;;;7.60;50.50;;;;;;5015080;28;20057;-72
2022/01/22 09:05:17;;;;;;;5.68;1.92;;;7.70;50.00;;;;;;5014734;28;20489;-72
2022/01/22 09:07:45;;;;;;;5.03;2.20;;;7.70;49.70;;;;;;5014545;28;20033;-71
2022/01/22 09:10:11;;;;;;;6.68;2.70;;;7.80;49.00;;;;;;5014759;28;20391;-69
2022/01/22 09:12:37;;;;;;;5.43;2.22;;;7.90;49.80;;;;;;5005395;28;20030;-70
2022/01/22 09:15:04;;;;;;;5.45;2.03;;;7.90;50.10;;;;;;5011841;28;20026;-72
2022/01/22 09:17:31;;;;;;;5.28;2.03;;;7.90;49.40;;;;;;5014642;28;20480;-71
2022/01/22 09:19:58;;;;;;;9.68;5.65;;;8.00;48.80;;;;;;5015067;28;20026;-71
2022/01/22 09:22:25;;;;;;;7.63;4.18;;;8.20;49.40;;;;;;5015410;28;20113;-72
2022/01/22 09:24:52;;;;;;;10.50;3.28;;;8.30;49.30;;;;;;5018736;28;20505;-73
2022/01/22 09:27:19;;;;;;;8.15;2.60;;;8.30;49.10;;;;;;5026463;28;20018;-72
2022/01/22 09:29:45;;;;;;;6.85;2.70;;;8.40;48.10;;;;;;5024381;28;20041;-72
2022/01/22 09:32:11;;;;;;;6.80;2.55;;;8.50;48.20;;;;;;5010967;28;20442;-73
2022/01/22 09:34:37;;;;;;;9.02;2.50;;;8.60;48.00;;;;;;4993637;28;20026;-73
2022/01/22 09:37:03;;;;;;;15.45;7.30;;;8.70;47.30;;;;;;4994397;28;20025;-74
2022/01/22 09:39:29;;;;;;;7.93;3.40;;;8.70;47.40;;;;;;4994238;28;20125;-74
2022/01/22 09:41:55;;;;;;;10.38;3.15;;;8.90;47.30;;;;;;4994364;28;20067;-73
2022/01/22 09:44:21;;;;;;;5.78;2.70;;;8.90;47.80;;;;;;4994493;28;20106;-73
2022/01/22 09:46:47;;;;;;;5.28;2.35;;;9.00;47.40;;;;;;4994412;28;20100;-73
2022/01/22 09:49:13;;;;;;;10.13;3.05;;;9.10;44.90;;;;;;4993660;28;20061;-72
2022/01/22 09:51:44;;;;;;;5.47;2.30;;;9.20;46.20;;;;;;4994082;28;20075;-78
2022/01/22 09:54:11;;;;;;;7.53;2.40;;;9.20;44.30;;;;;;4994005;28;20052;-71
2022/01/22 09:56:40;;;;;;;5.03;2.22;;;9.20;43.50;;;;;;4996291;28;20034;-70
2022/01/22 09:59:06;;;;;;;7.25;2.28;;;9.30;43.80;;;;;;4993699;28;20077;-72
2022/01/22 10:01:34;;;;;;;5.00;2.22;;;9.30;43.40;;;;;;4993842;28;20046;-69
2022/01/22 10:04:05;;;;;;;6.00;2.30;;;9.40;43.80;;;;;;5025361;28;20475;-70
2022/01/22 10:06:33;;;;;;;5.70;2.22;;;9.50;44.50;;;;;;4994020;28;20138;-73
2022/01/22 10:09:10;;;;;;;6.78;2.30;;;9.60;44.00;;;;;;4993592;28;20042;-70
2022/01/22 10:11:36;;;;;;;5.95;2.20;;;9.60;42.60;;;;;;4992350;28;20030;-70
2022/01/22 10:14:02;;;;;;;5.88;2.33;;;9.70;42.80;;;;;;4994067;28;20422;-69
2022/01/22 10:16:34;;;;;;;6.80;2.22;;;9.70;40.90;;;;;;4993627;28;20469;-69
2022/01/22 10:19:19;;;;;;;8.30;2.22;;;9.80;41.50;;;;;;4993657;28;20066;-70
2022/01/22 10:21:49;;;;;;;5.78;2.40;;;9.80;41.30;;;;;;4993851;28;20363;-70
2022/01/22 10:24:33;;;;;;;7.65;2.65;;;9.90;41.80;;;;;;4993812;28;20022;-71
2022/01/22 10:27:37;;;;;;;6.03;2.20;;;10.00;42.10;;;;;;4993293;28;20038;-70
2022/01/22 10:30:18;;;;;;;5.60;2.30;;;10.00;40.90;;;;;;4993260;28;20038;-69
2022/01/22 10:35:22;;;;;;;5.45;2.10;;;10.10;39.10;;;;;;4993146;28;20035;-72
2022/01/22 10:37:54;;;;;;;4.80;1.80;;;10.10;39.10;;;;;;4992863;28;20085;-70
2022/01/22 10:40:30;;;;;;;4.53;1.98;;;10.10;39.30;;;;;;4993610;28;20503;-70
2022/01/22 10:43:20;;;;;;;6.40;2.47;;;10.20;39.10;;;;;;4992766;28;20384;-70
2022/01/22 10:46:21;;;;;;;5.35;2.03;;;10.30;40.60;;;;;;4991983;28;20048;-70
2022/01/22 10:49:24;;;;;;;4.40;1.70;;;10.30;38.90;;;;;;5002523;28;20388;-71
2022/01/22 10:52:00;;;;;;;6.67;2.17;;;10.40;39.70;;;;;;4995453;28;20042;-71
2022/01/22 10:54:34;;;;;;;6.00;1.95;;;10.50;39.20;;;;;;4993030;28;20277;-69
2022/01/22 10:57:25;;;;;;;6.05;2.00;;;10.50;38.70;;;;;;4992962;28;20022;-69
2022/01/22 10:59:55;;;;;;;5.60;2.15;;;10.60;38.70;;;;;;4992853;28;20026;-69
2022/01/22 11:02:37;;;;;;;5.68;2.28;;;10.60;38.80;;;;;;4993071;28;20067;-71
2022/01/22 11:05:04;;;;;;;6.25;2.13;;;10.70;38.40;;;;;;5024371;28;20058;-68
2022/01/22 11:07:30;;;;;;;5.57;2.03;;;10.80;38.50;;;;;;4993751;28;20491;-71
2022/01/22 11:09:56;;;;;;;8.38;2.30;;;10.90;38.80;;;;;;4993129;28;20037;-71
2022/01/22 11:12:23;;;;;;;5.97;2.42;;;11.00;39.10;;;;;;4993336;28;20125;-70
2022/01/22 11:14:49;;;;;;;6.85;2.17;;;11.00;38.90;;;;;;4992954;28;20036;-75
2022/01/22 11:17:18;;;;;;;5.68;1.95;;;11.10;38.20;;;;;;4992604;28;20391;-71
2022/01/22 11:19:46;;;;;;;5.35;1.98;;;11.10;38.10;;;;;;4991080;28;20029;-72
2022/01/22 11:22:14;;;;;;;10.45;2.38;;;11.20;37.90;;;;;;4991188;28;20391;-68
2022/01/22 11:24:51;;;;;;;5.53;2.20;;;11.30;37.30;;;;;;4992953;28;20054;-72
2022/01/22 11:27:20;;;;;;;5.90;2.25;;;11.30;37.20;;;;;;4992709;28;20034;-70
2022/01/22 11:29:57;;;;;;;8.73;2.30;;;11.40;36.90;;;;;;4992509;28;20491;-70
2022/01/22 11:32:52;;;;;;;6.05;2.22;;;11.50;35.60;;;;;;4992618;28;20357;-70
2022/01/22 11:35:32;;;;;;;6.68;2.00;;;11.60;37.50;;;;;;4992544;28;20084;-71
2022/01/22 11:38:25;;;;;;;7.18;1.98;;;11.60;37.00;;;;;;4992476;28;20096;-69
2022/01/22 11:41:11;;;;;;;6.35;2.38;;;11.70;37.10;;;;;;5023866;28;20077;-73
2022/01/22 11:43:52;;;;;;;5.90;2.17;;;11.80;36.10;;;;;;4992361;28;20042;-69
2022/01/22 11:46:29;;;;;;;4.78;1.83;;;11.80;36.70;;;;;;4992271;28;20128;-69
2022/01/22 11:49:22;;;;;;;6.30;2.35;;;11.80;35.50;;;;;;4992611;28;20046;-73
2022/01/22 11:52:12;;;;;;;5.83;2.03;;;11.90;36.20;;;;;;4992923;28;20081;-78
2022/01/22 11:55:01;;;;;;;10.73;2.85;;;12.00;36.40;;;;;;4994126;28;20089;-75
2022/01/22 11:57:31;;;;;;;7.28;2.97;;;12.10;36.60;;;;;;4996411;28;20022;-79
2022/01/22 12:00:23;;;;;;;11.00;3.67;;;12.10;36.50;;;;;;4994985;28;20407;-74
2022/01/22 12:03:07;;;;;;;6.70;2.60;;;12.30;36.90;;;;;;4996191;28;20049;-74
2022/01/22 12:05:34;;;;;;;14.63;3.55;;;12.30;37.10;;;;;;4995958;28;20034;-80
2022/01/22 12:08:00;;;;;;;7.72;2.58;;;12.30;36.50;;;;;;4996057;28;20038;-70
2022/01/22 12:10:40;;;;;;;7.50;2.35;;;12.30;36.70;;;;;;4996232;28;20018;-79
2022/01/22 12:16:44;;;;;;;5.72;2.10;;;12.30;35.90;;;;;;4996473;28;20119;-72
2022/01/22 12:19:42;;;;;;;6.10;2.03;;;12.30;36.80;;;;;;4996853;28;20142;-74
2022/01/22 12:22:37;;;;;;;5.88;2.20;;;12.40;36.50;;;;;;4996289;28;20507;-77
2022/01/22 12:25:08;;;;;;;7.78;2.30;;;12.40;36.70;;;;;;5008341;28;20398;-79
2022/01/22 12:27:53;;;;;;;8.45;2.53;;;12.40;36.80;;;;;;4995951;28;20027;-73
2022/01/22 12:30:39;;;;;;;7.10;2.47;;;12.50;36.60;;;;;;4995674;28;20026;-72
2022/01/22 12:33:11;;;;;;;5.20;2.25;;;12.70;36.00;;;;;;4995845;28;20026;-73
2022/01/22 12:35:43;;;;;;;10.57;2.72;;;12.80;36.20;;;;;;4995781;28;20030;-79
2022/01/22 12:38:21;;;;;;;4.75;2.35;;;12.80;36.10;;;;;;4995182;28;20038;-73
2022/01/22 12:40:51;;;;;;;11.43;3.25;;;12.90;35.90;;;;;;4995447;28;20030;-79
2022/01/22 12:43:27;;;;;;;8.50;3.03;;;13.00;36.60;;;;;;4995664;28;20036;-71
2022/01/22 12:45:59;;;;;;;7.80;2.72;;;13.10;36.90;;;;;;4995883;28;20018;-77
2022/01/22 12:48:32;;;;;;;7.55;2.72;;;13.20;36.60;;;;;;5012291;28;20057;-78
2022/01/22 12:51:04;;;;;;;5.60;2.88;;;13.30;36.60;;;;;;4994719;28;20038;-73
2022/01/22 12:53:31;;;;;;;6.10;2.78;;;13.40;36.70;;;;;;4994598;28;20038;-74
2022/01/22 12:58:28;;;;;;;7.65;2.90;;;13.40;36.90;;;;;;4984669;28;20076;-74
2022/01/22 13:01:13;;;;;;;8.57;4.22;;;13.40;36.90;;;;;;4989844;28;20368;-76
2022/01/22 13:03:50;;;;;;;10.15;6.78;;;13.40;36.30;;;;;;4994951;28;20441;-75
2022/01/22 13:06:18;;;;;;;5.72;2.80;;;13.30;36.30;;;;;;4977333;28;20038;-74
2022/01/22 13:08:44;;;;;;;7.07;3.25;;;13.30;36.70;;;;;;4990707;28;20028;-73
2022/01/22 13:11:18;;;;;;;6.10;2.85;;;13.40;37.50;;;;;;4994554;28;20109;-73
2022/01/22 13:13:49;;;;;;;5.63;2.63;;;13.50;37.70;;;;;;4994702;28;20364;-73
2022/01/22 13:16:17;;;;;;;5.13;2.65;;;13.60;38.10;;;;;;4994420;28;20052;-74
2022/01/22 13:18:51;;;;;;;6.40;2.88;;;13.60;38.00;;;;;;4994636;28;20395;-73
2022/01/22 13:21:20;;;;;;;7.03;2.85;;;13.50;37.40;;;;;;4994493;28;20305;-71
2022/01/22 13:24:08;;;;;;;8.65;4.00;;;13.50;38.70;;;;;;5007861;28;20163;-70
2022/01/22 13:26:50;;;;;;;7.07;2.80;;;13.60;38.90;;;;;;5013621;28;20018;-73
2022/01/22 13:29:25;;;;;;;6.45;3.20;;;13.60;38.50;;;;;;5015046;28;20045;-75
2022/01/22 13:32:00;;;;;;;6.35;2.50;;;13.70;38.10;;;;;;5014570;28;20040;-69
2022/01/22 13:34:45;;;;;;;5.30;2.53;;;13.50;38.20;;;;;;5014233;28;20454;-71
2022/01/22 13:37:59;;;;;;;6.22;2.30;;;13.50;39.00;;;;;;5013641;28;21980;-71
2022/01/22 13:48:26;;;;;;;4.55;2.15;;;13.80;41.40;;;;;;4990940;28;20034;-70
2022/01/22 13:50:52;;;;;;;5.40;2.65;;;13.80;41.80;;;;;;4995902;28;20049;-77
2022/01/22 13:53:18;;;;;;;5.07;2.60;;;13.90;41.70;;;;;;4993877;28;20026;-68
2022/01/22 13:55:56;;;;;;;6.95;2.35;;;13.80;40.60;;;;;;4994255;28;20509;-70
2022/01/22 13:58:22;;;;;;;5.70;2.50;;;13.90;40.70;;;;;;4992627;28;20046;-77
2022/01/22 14:00:48;;;;;;;9.02;2.33;;;13.90;40.60;;;;;;5008851;28;20027;-71
2022/01/22 14:03:59;;;;;;;5.43;2.10;;;13.90;41.00;;;;;;4999235;28;20391;-78
2022/01/22 14:06:06;;;;;;;9.10;2.30;;;13.90;41.10;;;;;;4998804;28;20042;-76
2022/01/22 14:08:34;;;;;;;4.82;2.10;;;13.90;41.40;;;;;;4993766;28;20026;-76
2022/01/22 14:11:07;;;;;;;16.17;3.38;;;13.90;41.60;;;;;;4994133;28;20088;-74
2022/01/22 14:13:33;;;;;;;12.43;2.30;;;13.90;42.20;;;;;;4994133;28;20046;-75
2022/01/22 14:16:21;;;;;;;5.45;2.28;;;13.90;41.30;;;;;;4993849;28;20061;-75
2022/01/22 14:18:48;;;;;;;5.38;2.22;;;14.00;40.90;;;;;;4993181;28;20049;-76
2022/01/22 14:21:18;;;;;;;4.07;2.38;;;14.10;40.20;;;;;;4994025;28;20025;-75
2022/01/22 14:23:45;;;;;;;5.35;1.98;;;14.00;39.70;;;;;;4996285;28;20093;-75
2022/01/22 14:26:18;;;;;;;7.20;2.10;;;13.90;39.80;;;;;;4993794;28;20392;-75
2022/01/22 14:28:57;;;;;;;6.45;2.00;;;13.90;39.50;;;;;;4993747;28;20034;-76
2022/01/22 14:31:29;;;;;;;4.45;1.70;;;13.80;39.80;;;;;;4994694;28;20109;-77
2022/01/22 14:34:03;;;;;;;5.22;2.00;;;13.70;39.50;;;;;;4994287;28;20429;-77
2022/01/22 14:36:38;;;;;;;5.13;1.83;;;13.70;41.30;;;;;;4994248;28;20031;-74
2022/01/22 14:44:36;;;;;;;;;;;13.60;41.10;;;;;;4993854;28;20036;-80
2022/01/22 14:47:12;;;;;;;5.55;1.90;;;13.50;42.20;;;;;;4993572;28;19952;-75
2022/01/22 14:49:48;;;;;;;3.72;1.85;;;13.50;42.60;;;;;;4992912;28;20057;-76
2022/01/22 14:52:17;;;;;;;5.85;2.30;;;13.30;43.00;;;;;;4993169;28;20035;-76
2022/01/22 14:54:45;;;;;;;7.45;2.70;;;13.30;43.50;;;;;;4992358;28;20025;-75
2022/01/22 14:57:13;;;;;;;5.70;2.40;;;13.20;43.70;;;;;;4991662;28;20109;-75
2022/01/22 14:59:42;;;;;;;7.15;2.65;;;13.20;43.60;;;;;;4992849;28;20046;-75
2022/01/22 15:02:09;;;;;;;7.22;2.40;;;13.10;43.40;;;;;;4993145;28;20026;-75